METAR Formatted Surface Weather Observation
Issued by NWS

Home | Current Version | Previous Version | Text Only | Print | Product List | Glossary On
Versions: 1 2 3 4 5 6 7 8 9 10 11 12 13 14 15 16 17 18 19 20 21 22 23 24 25 26 27 28 29 30 31 32 33 34 35 36 37 38 39 40 41 42 43 44 45 46 47 48 49 50
285
SAUS44 KCRP 081658
MTRNGP
METAR KNGP 081656Z 02030G34KT 8SM BKN013 OVC017 10/09 A3034 RMK AO2
PK WND 03034/1655 RAE09 SLP272 P0000 T01000089



USA.gov is the U.S. government's official web portal to all federal, state and local government web resources and services.